createdAt,value
2018-07-24T00:00:14.119Z,18.14
2018-07-24T00:02:43.768Z,18.14
2018-07-24T00:05:13.528Z,18.12
2018-07-24T00:07:43.067Z,18.10
2018-07-24T00:10:12.650Z,18.10
2018-07-24T00:12:42.250Z,18.09
2018-07-24T00:15:11.829Z,18.07
2018-07-24T00:17:41.391Z,18.05
2018-07-24T00:20:10.983Z,18.02
2018-07-24T00:22:40.566Z,17.99
2018-07-24T00:25:10.102Z,17.96
2018-07-24T00:27:39.683Z,17.99
2018-07-24T00:30:09.418Z,17.94
2018-07-24T00:32:38.969Z,17.93
2018-07-24T00:35:08.638Z,17.90
2018-07-24T00:37:38.222Z,17.86
2018-07-24T00:40:07.813Z,17.81
2018-07-24T00:42:37.406Z,17.79
2018-07-24T00:45:07.084Z,17.77
2018-07-24T00:47:36.661Z,17.75
2018-07-24T00:50:06.550Z,17.74
2018-07-24T00:52:36.086Z,17.73
2018-07-24T00:55:05.705Z,17.71
2018-07-24T00:57:35.262Z,17.70
2018-07-24T01:00:05.139Z,17.66
2018-07-24T01:02:34.733Z,17.62
2018-07-24T01:05:04.408Z,17.59
2018-07-24T01:07:38.273Z,17.56
2018-07-24T01:10:09.498Z,17.52
2018-07-24T01:12:39.323Z,17.53
2018-07-24T01:15:08.968Z,17.51
2018-07-24T01:17:38.527Z,17.49
2018-07-24T01:20:08.109Z,17.44
2018-07-24T01:22:37.677Z,17.42
2018-07-24T01:25:07.285Z,17.41
2018-07-24T01:27:36.967Z,17.40
2018-07-24T01:30:06.606Z,17.36
2018-07-24T01:32:36.187Z,17.34
2018-07-24T01:35:05.754Z,17.32
2018-07-24T01:37:35.365Z,17.29
2018-07-24T01:40:04.974Z,17.29
2018-07-24T01:42:34.503Z,17.29
2018-07-24T01:45:04.236Z,17.27
2018-07-24T01:47:33.968Z,17.26
2018-07-24T01:50:03.562Z,17.23
2018-07-24T01:52:33.135Z,17.24
2018-07-24T01:55:02.703Z,17.22
2018-07-24T01:57:32.274Z,17.17
2018-07-24T02:00:01.806Z,17.15
2018-07-24T02:02:31.503Z,17.15
2018-07-24T02:05:01.049Z,17.13
2018-07-24T02:07:30.606Z,17.12
2018-07-24T02:10:00.233Z,17.11
2018-07-24T02:12:29.858Z,17.10
2018-07-24T02:14:59.428Z,17.08
2018-07-24T02:17:28.976Z,17.07
2018-07-24T02:19:58.670Z,17.04
2018-07-24T02:22:28.286Z,17.02
2018-07-24T02:24:57.894Z,16.96
2018-07-24T02:27:27.464Z,16.93
2018-07-24T02:29:57.013Z,16.92
2018-07-24T02:32:26.834Z,16.91
2018-07-24T02:34:56.373Z,16.92
2018-07-24T02:37:25.939Z,16.92
2018-07-24T02:39:55.560Z,16.90
2018-07-24T02:42:25.151Z,16.89
2018-07-24T02:44:54.820Z,16.82
2018-07-24T02:47:24.402Z,16.82
2018-07-24T02:49:53.950Z,16.81
2018-07-24T02:52:23.566Z,16.82
2018-07-24T02:54:53.125Z,16.83
2018-07-24T02:57:22.678Z,16.79
2018-07-24T02:59:52.304Z,16.77
2018-07-24T03:02:21.847Z,16.75
2018-07-24T03:04:51.440Z,16.73
2018-07-24T03:07:21.051Z,16.70
2018-07-24T03:09:50.614Z,16.69
2018-07-24T03:12:20.280Z,16.70
2018-07-24T03:14:49.841Z,16.67
2018-07-24T03:17:19.404Z,16.66
2018-07-24T03:19:48.954Z,16.65
2018-07-24T03:22:18.582Z,16.65
2018-07-24T03:24:48.137Z,16.60
2018-07-24T03:27:17.690Z,16.61
2018-07-24T03:29:47.258Z,16.59
2018-07-24T03:32:16.830Z,16.59
2018-07-24T03:34:46.472Z,16.60
2018-07-24T03:37:16.031Z,16.60
2018-07-24T03:39:45.654Z,16.57
2018-07-24T03:42:15.189Z,16.51
2018-07-24T03:44:44.815Z,16.50
2018-07-24T03:47:14.374Z,16.54
2018-07-24T03:49:43.999Z,16.51
2018-07-24T03:52:13.614Z,16.49
2018-07-24T03:54:43.468Z,16.48
2018-07-24T03:57:13.094Z,16.53
2018-07-24T03:59:42.655Z,16.54
2018-07-24T04:02:12.706Z,16.52
2018-07-24T04:04:42.274Z,16.52
2018-07-24T04:07:11.846Z,16.51
2018-07-24T04:09:41.384Z,16.56
2018-07-24T04:12:11.171Z,16.60
2018-07-24T04:14:40.711Z,16.60
2018-07-24T04:17:10.349Z,16.62
2018-07-24T04:19:39.912Z,16.65
2018-07-24T04:22:09.458Z,16.69
2018-07-24T04:24:39.122Z,16.72
2018-07-24T04:27:09.254Z,16.74
2018-07-24T04:29:38.802Z,16.78
2018-07-24T04:32:08.424Z,16.82
2018-07-24T04:34:38.047Z,16.86
2018-07-24T04:37:07.634Z,16.90
2018-07-24T04:39:37.192Z,16.94
2018-07-24T04:42:06.814Z,16.96
2018-07-24T04:44:36.352Z,17.01
2018-07-24T04:47:06.027Z,17.03
2018-07-24T04:49:35.608Z,17.08
2018-07-24T04:52:05.204Z,17.17
2018-07-24T04:54:35.922Z,17.22
2018-07-24T04:57:05.608Z,17.26
2018-07-24T04:59:35.206Z,17.34
2018-07-24T05:02:05.061Z,17.43
2018-07-24T05:04:34.743Z,17.48
2018-07-24T05:07:04.516Z,17.56
2018-07-24T05:09:34.140Z,17.64
2018-07-24T05:12:03.894Z,17.72
2018-07-24T05:14:33.558Z,17.76
2018-07-24T05:17:03.170Z,17.85
2018-07-24T05:19:32.891Z,17.92
2018-07-24T05:22:02.447Z,18.00
2018-07-24T05:24:32.020Z,18.07
2018-07-24T05:27:01.700Z,18.16
2018-07-24T05:29:31.283Z,18.24
2018-07-24T05:32:00.854Z,18.34
2018-07-24T05:34:30.442Z,18.42
2018-07-24T05:37:00.023Z,18.52
2018-07-24T05:39:29.678Z,18.61
2018-07-24T05:41:59.299Z,18.68
2018-07-24T05:44:28.867Z,18.78
2018-07-24T05:46:58.438Z,18.88
2018-07-24T05:49:27.980Z,18.98
2018-07-24T05:51:57.634Z,19.07
2018-07-24T05:54:27.209Z,19.17
2018-07-24T05:56:57.045Z,19.27
2018-07-24T05:59:26.667Z,19.36
2018-07-24T06:01:56.369Z,19.46
2018-07-24T06:04:25.928Z,19.56
2018-07-24T06:06:55.501Z,19.68
2018-07-24T06:09:25.054Z,19.78
2018-07-24T06:11:54.578Z,19.92
2018-07-24T06:14:24.156Z,20.02
2018-07-24T06:16:53.807Z,20.13
2018-07-24T06:19:23.406Z,20.34
2018-07-24T06:21:53.044Z,20.52
2018-07-24T06:24:22.576Z,20.62
2018-07-24T06:26:52.138Z,20.76
2018-07-24T06:29:21.813Z,20.89
2018-07-24T06:31:51.552Z,21.03
2018-07-24T06:34:21.171Z,21.23
2018-07-24T06:36:50.855Z,21.40
2018-07-24T06:39:20.450Z,21.55
2018-07-24T06:41:50.011Z,21.68
2018-07-24T06:44:19.848Z,21.77
2018-07-24T06:46:49.650Z,21.90
2018-07-24T06:49:19.270Z,22.05
2018-07-24T06:51:48.895Z,22.21
2018-07-24T06:54:18.482Z,22.39
2018-07-24T06:56:48.115Z,22.55
2018-07-24T06:59:17.790Z,22.70
2018-07-24T07:01:47.386Z,22.90
2018-07-24T07:04:16.976Z,23.09
2018-07-24T07:06:46.510Z,23.26
2018-07-24T07:09:16.074Z,23.45
2018-07-24T07:11:45.851Z,23.61
2018-07-24T07:14:15.430Z,23.75
2018-07-24T07:16:45.179Z,23.93
2018-07-24T07:19:14.797Z,24.09
2018-07-24T07:21:44.383Z,24.23
2018-07-24T07:24:14.109Z,24.40
2018-07-24T07:26:43.654Z,24.59
2018-07-24T07:29:13.226Z,24.70
2018-07-24T07:31:42.834Z,24.84
2018-07-24T07:34:12.377Z,25.02
2018-07-24T07:36:41.921Z,25.11
2018-07-24T07:39:12.048Z,25.23
2018-07-24T07:41:41.607Z,25.33
2018-07-24T07:44:11.155Z,25.42
2018-07-24T07:46:40.684Z,25.51
2018-07-24T07:49:10.231Z,25.64
2018-07-24T07:51:39.899Z,25.79
2018-07-24T07:54:09.493Z,25.99
2018-07-24T07:56:39.047Z,26.19
2018-07-24T07:59:08.684Z,26.28
2018-07-24T08:01:38.370Z,26.39
2018-07-24T08:04:07.956Z,26.49
2018-07-24T08:06:37.519Z,26.55
2018-07-24T08:09:09.346Z,26.80
2018-07-24T08:11:38.912Z,26.88
2018-07-24T08:14:08.939Z,26.97
2018-07-24T08:16:38.552Z,27.05
2018-07-24T08:19:08.170Z,27.17
2018-07-24T08:21:37.741Z,27.32
2018-07-24T08:24:07.286Z,27.37
2018-07-24T08:26:36.844Z,27.46
2018-07-24T08:29:06.567Z,27.59
2018-07-24T08:31:36.149Z,27.69
2018-07-24T08:34:05.859Z,27.82
2018-07-24T08:36:35.399Z,27.88
2018-07-24T08:39:08.098Z,28.00
2018-07-24T08:41:37.671Z,28.16
2018-07-24T08:44:07.295Z,28.25
2018-07-24T08:46:36.889Z,28.26
2018-07-24T08:49:06.428Z,28.31
2018-07-24T08:51:36.016Z,28.33
2018-07-24T08:54:05.622Z,28.44
2018-07-24T08:56:35.151Z,28.56
2018-07-24T08:59:04.834Z,28.76
2018-07-24T09:01:34.405Z,28.94
2018-07-24T09:04:04.047Z,28.98
2018-07-24T09:06:33.686Z,29.01
2018-07-24T09:09:03.401Z,29.13
2018-07-24T09:11:33.060Z,29.24
2018-07-24T09:14:02.627Z,29.38
2018-07-24T09:16:32.171Z,29.46
2018-07-24T09:19:01.768Z,29.55
2018-07-24T09:21:31.412Z,29.62
2018-07-24T09:24:01.032Z,29.69
2018-07-24T09:26:30.578Z,29.80
2018-07-24T09:29:00.232Z,29.83
2018-07-24T09:31:29.958Z,29.88
2018-07-24T09:33:59.555Z,29.98
2018-07-24T09:36:29.184Z,29.99
2018-07-24T09:38:58.844Z,30.10
2018-07-24T09:41:28.431Z,30.21
2018-07-24T09:43:58.007Z,30.19
2018-07-24T09:46:27.563Z,30.30
2018-07-24T09:48:57.318Z,30.43
2018-07-24T09:51:26.874Z,30.55
2018-07-24T09:53:56.426Z,30.50
2018-07-24T09:56:26.101Z,30.49
2018-07-24T09:58:55.606Z,30.50
2018-07-24T10:01:30.241Z,30.66
2018-07-24T10:04:00.192Z,30.77
2018-07-24T10:06:29.963Z,30.74
2018-07-24T10:08:59.546Z,30.80
2018-07-24T10:11:29.115Z,30.89
2018-07-24T10:13:58.654Z,31.07
2018-07-24T10:16:28.225Z,31.28
2018-07-24T10:18:58.022Z,31.17
2018-07-24T10:21:27.568Z,31.40
2018-07-24T10:23:57.118Z,31.55
2018-07-24T10:26:26.674Z,31.60
2018-07-24T10:28:56.225Z,31.75
2018-07-24T10:31:25.830Z,31.94
2018-07-24T10:33:55.402Z,32.16
2018-07-24T10:36:24.983Z,32.33
2018-07-24T10:38:54.547Z,32.52
2018-07-24T10:41:24.189Z,32.60
2018-07-24T10:43:53.728Z,32.36
2018-07-24T10:46:23.570Z,32.57
2018-07-24T10:48:53.131Z,32.66
2018-07-24T10:51:22.811Z,32.58
2018-07-24T10:53:52.425Z,32.81
2018-07-24T10:56:21.966Z,33.03
2018-07-24T10:58:51.598Z,33.31
2018-07-24T11:01:21.132Z,33.49
2018-07-24T11:03:50.731Z,33.47
2018-07-24T11:06:20.463Z,33.35
2018-07-24T11:08:50.042Z,33.50
2018-07-24T11:11:19.932Z,33.63
2018-07-24T11:13:49.497Z,33.72
2018-07-24T11:16:19.117Z,33.64
2018-07-24T11:18:48.683Z,33.85
2018-07-24T11:21:18.242Z,33.95
2018-07-24T11:23:47.786Z,33.89
2018-07-24T11:26:17.338Z,33.95
2018-07-24T11:28:46.885Z,34.16
2018-07-24T11:31:16.500Z,34.49
2018-07-24T11:33:46.059Z,34.70
2018-07-24T11:36:15.785Z,34.87
2018-07-24T11:38:45.344Z,34.91
2018-07-24T11:41:14.929Z,34.61
2018-07-24T11:43:44.479Z,34.75
2018-07-24T11:46:14.018Z,34.92
2018-07-24T11:48:43.598Z,35.02
2018-07-24T11:51:13.278Z,35.23
2018-07-24T11:53:43.364Z,35.28
2018-07-24T11:56:13.063Z,35.46
2018-07-24T11:58:42.775Z,35.36
2018-07-24T12:01:12.376Z,35.63
2018-07-24T12:03:41.988Z,35.73
2018-07-24T12:06:11.579Z,35.79
2018-07-24T12:08:41.197Z,35.79
2018-07-24T12:11:10.749Z,35.94
2018-07-24T12:13:40.538Z,36.02
2018-07-24T12:16:10.334Z,36.29
2018-07-24T12:18:39.893Z,36.39
2018-07-24T12:21:09.494Z,36.28
2018-07-24T12:23:39.058Z,36.38
2018-07-24T12:26:08.653Z,36.36
2018-07-24T12:28:38.290Z,36.66
2018-07-24T12:31:07.913Z,36.55
2018-07-24T12:33:37.453Z,36.42
2018-07-24T12:36:07.116Z,36.54
2018-07-24T12:38:36.622Z,36.96
2018-07-24T12:41:06.351Z,37.73
2018-07-24T12:43:35.940Z,38.93
2018-07-24T12:46:05.542Z,40.17
2018-07-24T12:48:35.133Z,41.54
2018-07-24T12:51:04.691Z,43.01
2018-07-24T12:53:34.341Z,43.83
2018-07-24T12:56:03.958Z,44.87
2018-07-24T12:58:33.524Z,45.92
2018-07-24T13:01:03.043Z,46.95
2018-07-24T13:03:32.604Z,46.87
2018-07-24T13:06:02.307Z,46.48
2018-07-24T13:08:31.884Z,46.14
2018-07-24T13:11:01.519Z,45.75
2018-07-24T13:13:31.159Z,45.16
2018-07-24T13:16:00.762Z,44.24
2018-07-24T13:18:30.321Z,43.40
2018-07-24T13:20:59.965Z,42.23
2018-07-24T13:23:29.519Z,41.44
2018-07-24T13:25:59.142Z,40.84
2018-07-24T13:28:28.684Z,40.34
2018-07-24T13:30:58.224Z,39.89
2018-07-24T13:33:27.838Z,39.59
2018-07-24T13:35:57.417Z,39.30
2018-07-24T13:38:26.986Z,38.97
2018-07-24T13:40:56.603Z,38.74
2018-07-24T13:43:26.252Z,38.72
2018-07-24T13:45:55.823Z,38.54
2018-07-24T13:48:25.471Z,38.15
2018-07-24T13:50:55.018Z,38.00
2018-07-24T13:53:24.629Z,37.77
2018-07-24T13:55:54.176Z,37.61
2018-07-24T13:58:23.749Z,37.48
2018-07-24T14:00:53.319Z,37.09
2018-07-24T14:03:22.855Z,36.68
2018-07-24T14:05:52.796Z,36.44
2018-07-24T14:08:22.484Z,36.52
2018-07-24T14:10:52.040Z,36.62
2018-07-24T14:13:21.594Z,36.35
2018-07-24T14:15:51.156Z,36.25
2018-07-24T14:18:20.759Z,36.08
2018-07-24T14:20:50.314Z,36.12
2018-07-24T14:23:19.887Z,35.98
2018-07-24T14:25:49.418Z,35.99
2018-07-24T14:28:18.999Z,36.13
2018-07-24T14:30:48.622Z,36.22
2018-07-24T14:33:18.286Z,36.53
2018-07-24T14:35:47.858Z,36.74
2018-07-24T14:38:17.491Z,36.83
2018-07-24T14:40:47.090Z,36.83
2018-07-24T14:43:17.042Z,36.79
2018-07-24T14:45:46.582Z,36.90
2018-07-24T14:48:16.130Z,37.07
2018-07-24T14:50:45.769Z,37.20
2018-07-24T14:53:15.442Z,37.18
2018-07-24T14:55:44.986Z,37.08
2018-07-24T14:58:14.559Z,36.82
2018-07-24T15:00:44.091Z,36.43
2018-07-24T15:03:13.721Z,36.11
2018-07-24T15:05:43.435Z,35.83
2018-07-24T15:08:13.019Z,35.77
2018-07-24T15:10:42.579Z,35.86
2018-07-24T15:13:12.143Z,35.85
2018-07-24T15:15:41.690Z,36.19
2018-07-24T15:18:11.303Z,36.31
2018-07-24T15:20:40.865Z,36.51
2018-07-24T15:23:10.438Z,36.39
2018-07-24T15:25:40.030Z,36.45
2018-07-24T15:28:09.563Z,36.21
2018-07-24T15:30:39.105Z,36.17
2018-07-24T15:33:08.711Z,36.41
2018-07-24T15:35:38.251Z,36.57
2018-07-24T15:38:08.258Z,36.56
2018-07-24T15:40:37.839Z,36.64
2018-07-24T15:43:07.454Z,36.76
2018-07-24T15:45:37.375Z,36.80
2018-07-24T15:48:06.943Z,36.81
2018-07-24T15:50:36.526Z,36.74
2018-07-24T15:53:06.396Z,36.64
2018-07-24T15:55:35.947Z,36.49
2018-07-24T15:58:05.570Z,36.36
2018-07-24T16:00:35.066Z,36.17
2018-07-24T16:03:04.743Z,36.00
2018-07-24T16:05:34.321Z,35.78
2018-07-24T16:08:03.955Z,35.47
2018-07-24T16:10:33.528Z,35.52
2018-07-24T16:13:03.178Z,35.53
2018-07-24T16:15:32.864Z,35.51
2018-07-24T16:18:02.338Z,35.47
2018-07-24T16:20:31.936Z,35.41
2018-07-24T16:23:01.500Z,35.38
2018-07-24T16:25:31.083Z,35.36
2018-07-24T16:28:00.723Z,35.31
2018-07-24T16:30:30.370Z,35.22
2018-07-24T16:33:00.059Z,35.00
2018-07-24T16:35:29.682Z,34.96
2018-07-24T16:37:59.270Z,34.87
2018-07-24T16:40:28.900Z,34.72
2018-07-24T16:42:58.483Z,34.40
2018-07-24T16:45:28.066Z,34.03
2018-07-24T16:47:57.654Z,33.85
2018-07-24T16:50:27.262Z,33.57
2018-07-24T16:52:56.802Z,33.42
2018-07-24T16:55:26.366Z,33.25
2018-07-24T16:57:55.916Z,32.96
2018-07-24T17:00:25.535Z,32.76
2018-07-24T17:02:55.195Z,32.51
2018-07-24T17:05:24.728Z,32.34
2018-07-24T17:07:54.290Z,32.09
2018-07-24T17:10:23.865Z,31.89
2018-07-24T17:12:53.802Z,31.64
2018-07-24T17:15:23.372Z,31.38
2018-07-24T17:17:52.933Z,31.23
2018-07-24T17:20:22.485Z,31.08
2018-07-24T17:22:52.075Z,30.89
2018-07-24T17:25:21.722Z,30.74
2018-07-24T17:27:51.360Z,30.63
2018-07-24T17:30:20.843Z,30.53
2018-07-24T17:32:50.430Z,30.34
2018-07-24T17:35:20.098Z,30.17
2018-07-24T17:37:49.659Z,30.04
2018-07-24T17:40:19.245Z,29.86
2018-07-24T17:42:48.810Z,29.78
2018-07-24T17:45:18.461Z,29.65
2018-07-24T17:47:48.031Z,29.53
2018-07-24T17:50:17.598Z,29.38
2018-07-24T17:52:47.337Z,29.20
2018-07-24T17:55:16.983Z,29.08
2018-07-24T17:57:46.537Z,28.94
2018-07-24T18:00:16.137Z,28.85
2018-07-24T18:02:45.696Z,28.72
2018-07-24T18:05:15.266Z,28.62
2018-07-24T18:07:44.852Z,28.50
2018-07-24T18:10:14.496Z,28.38
2018-07-24T18:12:44.035Z,28.26
2018-07-24T18:15:13.612Z,28.16
2018-07-24T18:17:43.166Z,28.03
2018-07-24T18:20:12.855Z,27.88
2018-07-24T18:22:42.397Z,27.74
2018-07-24T18:25:11.982Z,27.59
2018-07-24T18:27:41.724Z,27.49
2018-07-24T18:30:11.554Z,27.34
2018-07-24T18:32:41.203Z,27.20
2018-07-24T18:35:10.776Z,27.07
2018-07-24T18:37:40.343Z,26.98
2018-07-24T18:40:09.974Z,26.84
2018-07-24T18:42:39.527Z,26.73
2018-07-24T18:45:09.140Z,26.59
2018-07-24T18:47:38.857Z,26.47
2018-07-24T18:50:08.424Z,26.33
2018-07-24T18:52:38.049Z,26.20
2018-07-24T18:55:07.593Z,26.08
2018-07-24T18:57:37.147Z,25.95
2018-07-24T19:00:06.854Z,25.79
2018-07-24T19:02:36.738Z,25.62
2018-07-24T19:05:06.354Z,25.48
2018-07-24T19:07:35.882Z,25.32
2018-07-24T19:10:05.688Z,25.14
2018-07-24T19:12:35.376Z,25.02
2018-07-24T19:15:05.592Z,24.92
2018-07-24T19:17:35.160Z,24.79
2018-07-24T19:20:05.071Z,24.67
2018-07-24T19:22:34.683Z,24.54
2018-07-24T19:25:04.311Z,24.42
2018-07-24T19:27:33.869Z,24.29
2018-07-24T19:30:03.546Z,24.19
2018-07-24T19:32:33.114Z,24.07
2018-07-24T19:35:03.669Z,23.98
2018-07-24T19:37:33.306Z,23.89
2018-07-24T19:40:02.851Z,23.81
2018-07-24T19:42:32.415Z,23.73
2018-07-24T19:45:01.964Z,23.67
2018-07-24T19:47:31.523Z,23.60
2018-07-24T19:50:01.172Z,23.53
2018-07-24T19:52:30.885Z,23.47
2018-07-24T19:55:00.434Z,23.42
2018-07-24T19:57:30.028Z,23.34
2018-07-24T19:59:59.591Z,23.29
2018-07-24T20:02:29.211Z,23.21
2018-07-24T20:04:58.745Z,23.16
2018-07-24T20:07:28.291Z,23.10
2018-07-24T20:09:57.952Z,23.04
2018-07-24T20:12:27.507Z,22.99
2018-07-24T20:14:57.055Z,22.92
2018-07-24T20:17:26.862Z,22.85
2018-07-24T20:19:56.470Z,22.80
2018-07-24T20:22:26.126Z,22.77
2018-07-24T20:24:55.666Z,22.69
2018-07-24T20:27:25.211Z,22.62
2018-07-24T20:29:54.793Z,22.57
2018-07-24T20:32:24.328Z,22.53
2018-07-24T20:34:53.900Z,22.49
2018-07-24T20:37:23.479Z,22.44
2018-07-24T20:39:53.028Z,22.40
2018-07-24T20:42:22.642Z,22.37
2018-07-24T20:44:52.255Z,22.30
2018-07-24T20:47:21.871Z,22.21
2018-07-24T20:49:51.462Z,22.17
2018-07-24T20:52:21.022Z,22.12
2018-07-24T20:54:50.593Z,22.06
2018-07-24T20:57:20.643Z,22.01
2018-07-24T20:59:50.237Z,21.94
2018-07-24T21:02:20.029Z,21.87
2018-07-24T21:04:49.714Z,21.81
2018-07-24T21:07:19.449Z,21.79
2018-07-24T21:09:49.011Z,21.75
2018-07-24T21:12:18.629Z,21.69
2018-07-24T21:14:48.270Z,21.62
2018-07-24T21:17:17.954Z,21.58
2018-07-24T21:19:47.566Z,21.54
2018-07-24T21:22:17.171Z,21.55
2018-07-24T21:24:46.778Z,21.53
2018-07-24T21:27:16.469Z,21.47
2018-07-24T21:29:46.059Z,21.43
2018-07-24T21:32:15.649Z,21.41
2018-07-24T21:34:45.319Z,21.35
2018-07-24T21:37:14.937Z,21.31
2018-07-24T21:39:44.918Z,21.27
2018-07-24T21:42:14.630Z,21.23
2018-07-24T21:44:44.153Z,21.21
2018-07-24T21:47:13.846Z,21.18
2018-07-24T21:49:43.406Z,21.10
2018-07-24T21:52:12.979Z,21.07
2018-07-24T21:54:42.620Z,21.03
2018-07-24T21:57:12.142Z,20.99
2018-07-24T21:59:41.710Z,20.95
2018-07-24T22:02:11.417Z,20.89
2018-07-24T22:04:41.203Z,20.84
2018-07-24T22:07:10.728Z,20.81
2018-07-24T22:09:40.266Z,20.78
2018-07-24T22:12:09.830Z,20.76
2018-07-24T22:14:39.436Z,20.74
2018-07-24T22:17:08.965Z,20.72
2018-07-24T22:19:38.482Z,20.71
2018-07-24T22:22:08.031Z,20.66
2018-07-24T22:24:37.570Z,20.66
2018-07-24T22:27:07.146Z,20.64
2018-07-24T22:29:37.030Z,20.61
2018-07-24T22:32:06.683Z,20.58
2018-07-24T22:34:36.205Z,20.56
2018-07-24T22:37:05.762Z,20.53
2018-07-24T22:39:35.361Z,20.52
2018-07-24T22:42:04.912Z,20.51
2018-07-24T22:44:34.642Z,20.47
2018-07-24T22:47:04.178Z,20.41
2018-07-24T22:49:33.749Z,20.38
2018-07-24T22:52:03.450Z,20.38
2018-07-24T22:54:32.981Z,20.35
2018-07-24T22:57:02.508Z,20.34
2018-07-24T22:59:32.152Z,20.32
2018-07-24T23:02:01.675Z,20.25
2018-07-24T23:04:31.302Z,20.22
2018-07-24T23:07:00.850Z,20.19
2018-07-24T23:09:30.421Z,20.11
2018-07-24T23:11:59.958Z,20.10
2018-07-24T23:14:29.484Z,20.06
2018-07-24T23:16:59.144Z,20.08
2018-07-24T23:19:28.658Z,20.00
2018-07-24T23:21:58.317Z,19.98
2018-07-24T23:24:27.847Z,19.99
2018-07-24T23:26:57.468Z,19.95
2018-07-24T23:29:26.993Z,19.89
2018-07-24T23:31:56.527Z,19.89
2018-07-24T23:34:26.031Z,19.86
2018-07-24T23:36:55.595Z,19.82
2018-07-24T23:39:25.135Z,19.79
2018-07-24T23:41:54.682Z,19.80
2018-07-24T23:44:24.245Z,19.79
2018-07-24T23:46:53.969Z,19.78
2018-07-24T23:49:23.494Z,19.77
2018-07-24T23:51:53.034Z,19.76
2018-07-24T23:54:22.657Z,19.73
2018-07-24T23:56:52.227Z,19.69
2018-07-24T23:59:21.764Z,19.69
